Terminal Aerodrome Forecast
Issued by NWS Green Bay, WI

Home | Current Version | Previous Version | Graphics & Text | Print | Product List | Glossary On
Versions: 1 2 3 4 5 6 7 8 9 10 11 12 13 14
000
FTUS43 KGRB 182323
TAFGRB
TAF
KGRB 182323Z 1900/1924 34012G18KT P6SM OVC028
     FM190300 31013G19KT P6SM BKN035
     FM191300 29012G18KT P6SM SCT040
     FM192200 26008KT P6SM SCT050 BKN090=

USA.gov is the U.S. government's official web portal to all federal, state and local government web resources and services.